N23017 KNIP-KNIP
Flight info
| Callsign | N23017 |
|---|---|
| Flight time | 0h 28m |
| Altitude | 2500 |
| Route | KNIP GATOR WETRO VQQ GATOR KNIP |
| Aircraft | C152/L-SF50/L |
Departure
| Time | 2026-05-04 01:53 |
|---|---|
| Airport | Jacksonville Naval Air Station (Towers Field) (KNIP) |
Arrival
| Time | 2026-05-04 02:21 |
|---|---|
| Airport | Jacksonville Naval Air Station (Towers Field) (KNIP) |
| Time | Latitude | Longitude | Altitude | Speed | Heading |
|---|---|---|---|---|---|
| 2026-05-04 01:40 | 30.22376 | -81.66673 | 8 ft | 0 kts | 207° |
| 2026-05-04 01:46 | 30.22361 | -81.66685 | 10 ft | 7 kts | 235° |
| 2026-05-04 01:46 | 30.22406 | -81.66719 | 14 ft | 14 kts | 349° |
| 2026-05-04 01:46 | 30.22546 | -81.66723 | 14 ft | 28 kts | 0° |
| 2026-05-04 01:46 | 30.22718 | -81.66717 | 12 ft | 18 kts | 21° |
| 2026-05-04 01:47 | 30.22818 | -81.66691 | 12 ft | 14 kts | 0° |
| 2026-05-04 01:47 | 30.22919 | -81.66692 | 12 ft | 15 kts | 0° |
| 2026-05-04 01:47 | 30.23018 | -81.66702 | 11 ft | 9 kts | 356° |
| 2026-05-04 01:47 | 30.23009 | -81.66731 | 11 ft | 17 kts | 211° |
| 2026-05-04 01:48 | 30.22985 | -81.66803 | 11 ft | 13 kts | 276° |
| 2026-05-04 01:48 | 30.23029 | -81.66829 | 11 ft | 8 kts | 1° |
| 2026-05-04 01:48 | 30.23075 | -81.66882 | 13 ft | 26 kts | 264° |
| 2026-05-04 01:48 | 30.23055 | -81.67106 | 18 ft | 24 kts | 271° |
| 2026-05-04 01:49 | 30.23054 | -81.67298 | 19 ft | 26 kts | 269° |
| 2026-05-04 01:49 | 30.23053 | -81.67499 | 20 ft | 24 kts | 270° |
| 2026-05-04 01:49 | 30.23052 | -81.67689 | 19 ft | 24 kts | 269° |
| 2026-05-04 01:49 | 30.23050 | -81.67885 | 15 ft | 25 kts | 268° |
| 2026-05-04 01:50 | 30.23042 | -81.68078 | 16 ft | 24 kts | 269° |
| 2026-05-04 01:50 | 30.23035 | -81.68294 | 15 ft | 31 kts | 267° |
| 2026-05-04 01:50 | 30.23029 | -81.68509 | 19 ft | 25 kts | 268° |
| 2026-05-04 01:50 | 30.23026 | -81.68694 | 23 ft | 22 kts | 274° |
| 2026-05-04 01:51 | 30.23023 | -81.68869 | 26 ft | 17 kts | 269° |
| 2026-05-04 01:51 | 30.23066 | -81.68929 | 27 ft | 7 kts | 0° |
| 2026-05-04 01:51 | 30.23092 | -81.68929 | 28 ft | 10 kts | 358° |
| 2026-05-04 01:51 | 30.23172 | -81.68902 | 28 ft | 10 kts | 62° |
| 2026-05-04 01:52 | 30.23163 | -81.68645 | 20 ft | 58 kts | 91° |
| 2026-05-04 01:52 | 30.23166 | -81.68054 | 38 ft | 81 kts | 87° |
| 2026-05-04 01:52 | 30.23171 | -81.67410 | 147 ft | 79 kts | 89° |
| 2026-05-04 01:52 | 30.23180 | -81.66779 | 275 ft | 78 kts | 91° |
| 2026-05-04 01:53 | 30.23174 | -81.66168 | 462 ft | 73 kts | 93° |
| 2026-05-04 01:53 | 30.23138 | -81.65570 | 575 ft | 77 kts | 94° |
| 2026-05-04 01:53 | 30.23354 | -81.65036 | 731 ft | 81 kts | 34° |
| 2026-05-04 01:53 | 30.23899 | -81.64961 | 945 ft | 81 kts | 349° |
| 2026-05-04 01:54 | 30.24309 | -81.65388 | 1175 ft | 83 kts | 307° |
| 2026-05-04 01:54 | 30.24464 | -81.66065 | 1295 ft | 94 kts | 269° |
| 2026-05-04 01:54 | 30.24432 | -81.66876 | 1329 ft | 105 kts | 262° |
| 2026-05-04 01:54 | 30.24410 | -81.67744 | 1366 ft | 109 kts | 265° |
| 2026-05-04 01:55 | 30.24439 | -81.68648 | 1371 ft | 113 kts | 270° |
| 2026-05-04 01:55 | 30.24482 | -81.69553 | 1343 ft | 118 kts | 272° |
| 2026-05-04 01:55 | 30.24544 | -81.70517 | 1254 ft | 122 kts | 271° |
| 2026-05-04 01:55 | 30.24617 | -81.71509 | 1147 ft | 125 kts | 275° |
| 2026-05-04 01:56 | 30.24444 | -81.72256 | 1049 ft | 86 kts | 204° |
| 2026-05-04 01:56 | 30.23902 | -81.72294 | 857 ft | 75 kts | 166° |
| 2026-05-04 01:56 | 30.23411 | -81.72109 | 730 ft | 74 kts | 137° |
| 2026-05-04 01:56 | 30.23227 | -81.71774 | 581 ft | 76 kts | 102° |
| 2026-05-04 01:57 | 30.23197 | -81.71228 | 473 ft | 59 kts | 89° |
| 2026-05-04 01:57 | 30.23206 | -81.70759 | 409 ft | 57 kts | 89° |
| 2026-05-04 01:57 | 30.23197 | -81.70274 | 321 ft | 61 kts | 93° |
| 2026-05-04 01:57 | 30.23184 | -81.69833 | 241 ft | 51 kts | 88° |
| 2026-05-04 01:58 | 30.23178 | -81.69380 | 140 ft | 56 kts | 92° |
| 2026-05-04 01:58 | 30.23170 | -81.68949 | 51 ft | 50 kts | 90° |
| 2026-05-04 01:58 | 30.23169 | -81.68496 | 19 ft | 70 kts | 89° |
| 2026-05-04 01:58 | 30.23168 | -81.67870 | 115 ft | 77 kts | 88° |
| 2026-05-04 01:59 | 30.23194 | -81.67265 | 273 ft | 75 kts | 89° |
| 2026-05-04 01:59 | 30.23184 | -81.66668 | 433 ft | 73 kts | 97° |
| 2026-05-04 01:59 | 30.23119 | -81.66086 | 577 ft | 77 kts | 97° |
| 2026-05-04 01:59 | 30.23072 | -81.65478 | 739 ft | 75 kts | 94° |
| 2026-05-04 02:00 | 30.23120 | -81.64888 | 877 ft | 77 kts | 68° |
| 2026-05-04 02:00 | 30.23602 | -81.64551 | 997 ft | 88 kts | 13° |
| 2026-05-04 02:00 | 30.24200 | -81.64745 | 1150 ft | 94 kts | 338° |
| 2026-05-04 02:00 | 30.24770 | -81.65147 | 1276 ft | 97 kts | 319° |
| 2026-05-04 02:01 | 30.25065 | -81.65860 | 1383 ft | 101 kts | 272° |
| 2026-05-04 02:01 | 30.25076 | -81.66700 | 1433 ft | 105 kts | 264° |
| 2026-05-04 02:01 | 30.25005 | -81.67568 | 1437 ft | 111 kts | 258° |
| 2026-05-04 02:01 | 30.24876 | -81.68456 | 1440 ft | 112 kts | 257° |
| 2026-05-04 02:02 | 30.24804 | -81.69338 | 1370 ft | 109 kts | 263° |
| 2026-05-04 02:02 | 30.24797 | -81.70279 | 1221 ft | 122 kts | 269° |
| 2026-05-04 02:02 | 30.24813 | -81.71216 | 1131 ft | 112 kts | 270° |
| 2026-05-04 02:02 | 30.24853 | -81.72074 | 1129 ft | 103 kts | 271° |
| 2026-05-04 02:03 | 30.24750 | -81.72860 | 1107 ft | 94 kts | 218° |
| 2026-05-04 02:03 | 30.24175 | -81.72834 | 900 ft | 90 kts | 152° |
| 2026-05-04 02:03 | 30.23643 | -81.72587 | 771 ft | 83 kts | 149° |
| 2026-05-04 02:03 | 30.23169 | -81.72161 | 554 ft | 93 kts | 118° |
| 2026-05-04 02:04 | 30.23113 | -81.71549 | 411 ft | 60 kts | 80° |
| 2026-05-04 02:04 | 30.23187 | -81.71123 | 378 ft | 61 kts | 88° |
| 2026-05-04 02:04 | 30.23178 | -81.70608 | 349 ft | 67 kts | 91° |
| 2026-05-04 02:04 | 30.23173 | -81.70050 | 298 ft | 68 kts | 90° |
| 2026-05-04 02:05 | 30.23173 | -81.69538 | 209 ft | 66 kts | 90° |
| 2026-05-04 02:05 | 30.23171 | -81.68953 | 58 ft | 68 kts | 92° |
| 2026-05-04 02:05 | 30.23164 | -81.68433 | 19 ft | 74 kts | 90° |
| 2026-05-04 02:05 | 30.23169 | -81.67764 | 60 ft | 86 kts | 89° |
| 2026-05-04 02:06 | 30.23189 | -81.67070 | 140 ft | 87 kts | 89° |
| 2026-05-04 02:06 | 30.23170 | -81.66366 | 226 ft | 87 kts | 90° |
| 2026-05-04 02:06 | 30.23161 | -81.65663 | 274 ft | 88 kts | 89° |
| 2026-05-04 02:06 | 30.23190 | -81.64965 | 330 ft | 87 kts | 85° |
| 2026-05-04 02:07 | 30.23342 | -81.64327 | 469 ft | 80 kts | 52° |
| 2026-05-04 02:07 | 30.23860 | -81.64132 | 603 ft | 87 kts | 355° |
| 2026-05-04 02:07 | 30.24398 | -81.64502 | 697 ft | 96 kts | 327° |
| 2026-05-04 02:07 | 30.24893 | -81.65045 | 697 ft | 104 kts | 301° |
| 2026-05-04 02:08 | 30.24925 | -81.65853 | 748 ft | 102 kts | 263° |
| 2026-05-04 02:08 | 30.24848 | -81.66674 | 828 ft | 102 kts | 261° |
| 2026-05-04 02:08 | 30.24791 | -81.67443 | 975 ft | 97 kts | 265° |
| 2026-05-04 02:08 | 30.24874 | -81.68237 | 1044 ft | 105 kts | 287° |
| 2026-05-04 02:09 | 30.25052 | -81.69058 | 1105 ft | 106 kts | 272° |
| 2026-05-04 02:09 | 30.25066 | -81.69913 | 1179 ft | 106 kts | 265° |
| 2026-05-04 02:09 | 30.25049 | -81.70760 | 1277 ft | 104 kts | 264° |
| 2026-05-04 02:09 | 30.25043 | -81.71585 | 1411 ft | 100 kts | 267° |
| 2026-05-04 02:10 | 30.25053 | -81.72410 | 1493 ft | 99 kts | 269° |
| 2026-05-04 02:10 | 30.24857 | -81.73123 | 1548 ft | 95 kts | 219° |
| 2026-05-04 02:10 | 30.24295 | -81.73199 | 1434 ft | 90 kts | 138° |
| 2026-05-04 02:10 | 30.23817 | -81.72790 | 1140 ft | 82 kts | 146° |
| 2026-05-04 02:11 | 30.23361 | -81.72436 | 962 ft | 79 kts | 131° |
| 2026-05-04 02:11 | 30.23163 | -81.71886 | 710 ft | 73 kts | 96° |
| 2026-05-04 02:11 | 30.23170 | -81.71302 | 439 ft | 76 kts | 89° |
| 2026-05-04 02:11 | 30.23168 | -81.70748 | 321 ft | 63 kts | 89° |
| 2026-05-04 02:12 | 30.23161 | -81.70266 | 281 ft | 55 kts | 92° |
| 2026-05-04 02:12 | 30.23150 | -81.69764 | 169 ft | 68 kts | 89° |
| 2026-05-04 02:12 | 30.23156 | -81.69210 | 81 ft | 68 kts | 88° |
| 2026-05-04 02:12 | 30.23162 | -81.68673 | 27 ft | 66 kts | 91° |
| 2026-05-04 02:13 | 30.23165 | -81.68123 | 14 ft | 79 kts | 90° |
| 2026-05-04 02:13 | 30.23167 | -81.67425 | 21 ft | 92 kts | 88° |
| 2026-05-04 02:13 | 30.23174 | -81.66701 | 140 ft | 85 kts | 88° |
| 2026-05-04 02:13 | 30.23189 | -81.66076 | 328 ft | 71 kts | 88° |
| 2026-05-04 02:14 | 30.23216 | -81.65529 | 487 ft | 69 kts | 87° |
| 2026-05-04 02:14 | 30.23220 | -81.64965 | 577 ft | 75 kts | 89° |
| 2026-05-04 02:14 | 30.23233 | -81.64337 | 655 ft | 80 kts | 88° |
| 2026-05-04 02:14 | 30.23298 | -81.63688 | 757 ft | 83 kts | 70° |
| 2026-05-04 02:15 | 30.23839 | -81.63587 | 831 ft | 97 kts | 340° |
| 2026-05-04 02:15 | 30.24424 | -81.63946 | 967 ft | 94 kts | 334° |
| 2026-05-04 02:15 | 30.24931 | -81.64432 | 1030 ft | 100 kts | 288° |
| 2026-05-04 02:15 | 30.24979 | -81.65268 | 997 ft | 111 kts | 267° |
| 2026-05-04 02:16 | 30.24943 | -81.66152 | 1068 ft | 108 kts | 264° |
| 2026-05-04 02:16 | 30.24912 | -81.67033 | 1099 ft | 111 kts | 265° |
| 2026-05-04 02:16 | 30.24901 | -81.67924 | 1150 ft | 110 kts | 268° |
| 2026-05-04 02:16 | 30.24890 | -81.68777 | 1294 ft | 103 kts | 265° |
| 2026-05-04 02:17 | 30.24850 | -81.69613 | 1346 ft | 109 kts | 262° |
| 2026-05-04 02:17 | 30.24810 | -81.70497 | 1370 ft | 111 kts | 265° |
| 2026-05-04 02:17 | 30.24814 | -81.71391 | 1412 ft | 111 kts | 269° |
| 2026-05-04 02:17 | 30.24847 | -81.72280 | 1460 ft | 111 kts | 271° |
| 2026-05-04 02:18 | 30.24899 | -81.73169 | 1524 ft | 110 kts | 271° |
| 2026-05-04 02:18 | 30.24933 | -81.74031 | 1656 ft | 102 kts | 257° |
| 2026-05-04 02:18 | 30.24548 | -81.74607 | 1742 ft | 89 kts | 193° |
| 2026-05-04 02:18 | 30.23931 | -81.74776 | 1740 ft | 96 kts | 181° |
| 2026-05-04 02:19 | 30.23303 | -81.74731 | 1677 ft | 92 kts | 135° |
| 2026-05-04 02:19 | 30.23181 | -81.73963 | 1408 ft | 94 kts | 96° |
| 2026-05-04 02:19 | 30.23145 | -81.73389 | 1249 ft | 65 kts | 94° |
| 2026-05-04 02:19 | 30.23155 | -81.72873 | 1079 ft | 66 kts | 91° |
| 2026-05-04 02:20 | 30.23165 | -81.72326 | 811 ft | 71 kts | 90° |
| 2026-05-04 02:20 | 30.23165 | -81.71756 | 574 ft | 72 kts | 91° |
| 2026-05-04 02:20 | 30.23156 | -81.71176 | 384 ft | 70 kts | 92° |
| 2026-05-04 02:20 | 30.23167 | -81.70631 | 311 ft | 66 kts | 88° |
| 2026-05-04 02:21 | 30.23152 | -81.70103 | 205 ft | 67 kts | 93° |
| 2026-05-04 02:21 | 30.23153 | -81.69590 | 125 ft | 63 kts | 84° |
| 2026-05-04 02:21 | 30.23155 | -81.69094 | 65 ft | 54 kts | 89° |
| 2026-05-04 02:21 | 30.23158 | -81.68677 | 22 ft | 47 kts | 91° |
| 2026-05-04 02:22 | 30.23161 | -81.68333 | 18 ft | 46 kts | 90° |
| 2026-05-04 02:22 | 30.23164 | -81.67944 | 17 ft | 47 kts | 90° |
| 2026-05-04 02:22 | 30.23167 | -81.67635 | 17 ft | 40 kts | 92° |
| 2026-05-04 02:22 | 30.23115 | -81.67487 | 19 ft | 20 kts | 173° |
| 2026-05-04 02:23 | 30.23048 | -81.67446 | 19 ft | 17 kts | 70° |
| 2026-05-04 02:23 | 30.23054 | -81.67278 | 19 ft | 19 kts | 89° |
| 2026-05-04 02:23 | 30.23055 | -81.67140 | 18 ft | 20 kts | 90° |
| 2026-05-04 02:23 | 30.23056 | -81.66985 | 15 ft | 19 kts | 89° |
| 2026-05-04 02:24 | 30.23072 | -81.66829 | 12 ft | 21 kts | 68° |
| 2026-05-04 02:24 | 30.23091 | -81.66684 | 10 ft | 12 kts | 103° |
| 2026-05-04 02:24 | 30.23011 | -81.66707 | 11 ft | 12 kts | 191° |
| 2026-05-04 02:24 | 30.22924 | -81.66701 | 12 ft | 16 kts | 180° |
| 2026-05-04 02:25 | 30.22808 | -81.66701 | 12 ft | 19 kts | 180° |
| 2026-05-04 02:25 | 30.22659 | -81.66696 | 11 ft | 21 kts | 159° |
| 2026-05-04 02:25 | 30.22595 | -81.66632 | 6 ft | 0 kts | 86° |